createdAt,value
2018-11-04T00:01:39.598Z,11.47
2018-11-04T00:04:09.785Z,11.70
2018-11-04T00:06:38.951Z,12.20
2018-11-04T00:09:10.411Z,11.93
2018-11-04T00:11:40.978Z,13.50
2018-11-04T00:14:10.480Z,12.30
2018-11-04T00:16:39.615Z,10.60
2018-11-04T00:19:08.515Z,13.20
2018-11-04T00:21:38.874Z,12.73
2018-11-04T00:24:08.116Z,13.53
2018-11-04T00:26:36.922Z,12.50
2018-11-04T00:29:07.040Z,11.83
2018-11-04T00:31:35.954Z,12.70
2018-11-04T00:34:05.495Z,12.03
2018-11-04T00:36:34.691Z,12.93
2018-11-04T00:39:04.734Z,12.00
2018-11-04T00:41:35.513Z,10.90
2018-11-04T00:44:08.349Z,11.30
2018-11-04T00:46:38.412Z,12.43
2018-11-04T00:49:08.317Z,11.60
2018-11-04T00:51:38.556Z,12.00
2018-11-04T00:54:07.427Z,13.00
2018-11-04T00:56:36.311Z,12.27
2018-11-04T00:59:06.463Z,12.50
2018-11-04T01:01:35.744Z,12.50
2018-11-04T01:04:05.882Z,11.90
2018-11-04T01:06:35.741Z,13.37
2018-11-04T01:09:06.382Z,12.20
2018-11-04T01:11:36.292Z,11.37
2018-11-04T01:14:05.354Z,12.40
2018-11-04T01:16:35.540Z,14.97
2018-11-04T01:19:04.731Z,12.63
2018-11-04T01:21:35.237Z,13.20
2018-11-04T01:24:04.664Z,13.27
2018-11-04T01:26:33.550Z,14.23
2018-11-04T01:29:02.964Z,14.40
2018-11-04T01:31:33.368Z,15.20
2018-11-04T01:34:02.707Z,15.30
2018-11-04T01:36:32.455Z,16.20
2018-11-04T01:39:01.651Z,13.80
2018-11-04T01:41:31.003Z,14.80
2018-11-04T01:44:00.137Z,14.70
2018-11-04T01:46:30.617Z,14.40
2018-11-04T01:49:00.031Z,14.67
2018-11-04T01:51:28.902Z,14.30
2018-11-04T01:53:58.839Z,16.30
2018-11-04T01:56:28.467Z,15.17
2018-11-04T01:58:58.354Z,15.27
2018-11-04T02:01:27.319Z,14.60
2018-11-04T02:03:57.481Z,16.77
2018-11-04T02:06:26.542Z,14.17
2018-11-04T02:08:56.191Z,17.07
2018-11-04T02:11:25.670Z,16.70
2018-11-04T02:13:54.830Z,15.87
2018-11-04T02:16:24.066Z,14.50
2018-11-04T02:18:54.371Z,17.07
2018-11-04T02:21:23.316Z,15.77
2018-11-04T02:23:52.195Z,14.03
2018-11-04T02:26:21.611Z,16.20
2018-11-04T02:28:50.783Z,17.33
2018-11-04T02:31:19.995Z,15.90
2018-11-04T02:33:50.279Z,15.10
2018-11-04T02:36:20.076Z,17.47
2018-11-04T02:38:50.487Z,16.20
2018-11-04T02:41:19.519Z,15.87
2018-11-04T02:43:48.435Z,14.33
2018-11-04T02:46:17.582Z,16.60
2018-11-04T02:48:46.503Z,16.47
2018-11-04T02:51:17.000Z,16.50
2018-11-04T02:53:46.479Z,14.63
2018-11-04T02:56:16.729Z,17.47
2018-11-04T02:58:47.029Z,16.77
2018-11-04T03:01:16.007Z,15.30
2018-11-04T03:03:47.009Z,16.80
2018-11-04T03:06:16.474Z,17.47
2018-11-04T03:08:46.970Z,15.20
2018-11-04T03:11:16.480Z,16.27
2018-11-04T03:13:45.648Z,17.50
2018-11-04T03:16:16.391Z,16.60
2018-11-04T03:18:45.735Z,16.80
2018-11-04T03:21:15.410Z,16.60
2018-11-04T03:23:44.792Z,15.07
2018-11-04T03:26:15.494Z,16.20
2018-11-04T03:28:44.450Z,16.10
2018-11-04T03:31:13.365Z,16.70
2018-11-04T03:33:43.366Z,14.60
2018-11-04T03:36:12.826Z,15.97
2018-11-04T03:38:42.316Z,16.57
2018-11-04T03:41:11.855Z,18.00
2018-11-04T03:43:41.967Z,18.53
2018-11-04T03:46:10.980Z,17.20
2018-11-04T03:48:40.587Z,18.40
2018-11-04T03:51:09.514Z,17.27
2018-11-04T03:53:38.395Z,18.10
2018-11-04T03:56:08.910Z,18.20
2018-11-04T03:58:38.270Z,17.10
2018-11-04T04:01:07.571Z,18.80
2018-11-04T04:03:36.469Z,16.20
2018-11-04T04:06:05.523Z,18.80
2018-11-04T04:08:34.395Z,18.80
2018-11-04T04:11:04.318Z,17.33
2018-11-04T04:13:33.556Z,16.70
2018-11-04T04:16:02.798Z,19.70
2018-11-04T04:18:31.955Z,18.37
2018-11-04T04:21:06.680Z,19.13
2018-11-04T04:23:36.411Z,19.27
2018-11-04T04:26:06.459Z,18.10
2018-11-04T04:28:35.355Z,17.93
2018-11-04T04:31:04.719Z,20.37
2018-11-04T04:33:33.904Z,19.10
2018-11-04T04:36:04.231Z,18.60
2018-11-04T04:38:33.291Z,17.83
2018-11-04T04:41:02.236Z,20.13
2018-11-04T04:43:31.123Z,19.30
2018-11-04T04:46:02.283Z,19.23
2018-11-04T04:48:31.607Z,18.63
2018-11-04T04:51:00.489Z,20.90
2018-11-04T04:53:29.945Z,20.43
2018-11-04T04:55:58.859Z,18.40
2018-11-04T04:58:28.357Z,19.50
2018-11-04T05:00:57.251Z,19.27
2018-11-04T05:03:32.968Z,19.30
2018-11-04T05:06:02.102Z,17.63
2018-11-04T05:08:30.973Z,19.40
2018-11-04T05:11:00.196Z,19.57
2018-11-04T05:13:29.064Z,19.33
2018-11-04T05:15:57.954Z,20.30
2018-11-04T05:18:27.134Z,20.50
2018-11-04T05:20:56.325Z,19.93
2018-11-04T05:23:25.250Z,19.03
2018-11-04T05:25:54.537Z,20.20
2018-11-04T05:28:23.926Z,21.00
2018-11-04T05:30:53.218Z,21.33
2018-11-04T05:33:26.742Z,19.20
2018-11-04T05:36:05.714Z,20.03
2018-11-04T05:38:38.407Z,20.73
2018-11-04T05:41:11.874Z,20.70
2018-11-04T05:43:44.335Z,18.53
2018-11-04T05:46:16.102Z,19.40
2018-11-04T05:48:46.508Z,18.07
2018-11-04T05:51:16.627Z,20.40
2018-11-04T05:53:46.907Z,19.97
2018-11-04T05:56:18.169Z,20.70
2018-11-04T05:58:48.605Z,19.47
2018-11-04T06:01:18.978Z,20.70
2018-11-04T06:03:48.790Z,21.53
2018-11-04T06:06:25.344Z,20.50
2018-11-04T06:08:54.374Z,21.83
2018-11-04T06:11:23.269Z,20.50
2018-11-04T06:13:52.143Z,19.87
2018-11-04T06:16:21.279Z,21.73
2018-11-04T06:18:50.480Z,21.40
2018-11-04T06:21:20.295Z,21.87
2018-11-04T06:23:49.417Z,22.53
2018-11-04T06:26:18.815Z,19.40
2018-11-04T06:28:47.758Z,19.90
2018-11-04T06:31:16.650Z,22.93
2018-11-04T06:33:45.534Z,20.23
2018-11-04T06:36:14.583Z,20.80
2018-11-04T06:38:43.494Z,19.60
2018-11-04T06:41:12.636Z,20.20
2018-11-04T06:43:41.802Z,20.57
2018-11-04T06:46:11.612Z,22.93
2018-11-04T06:48:40.502Z,23.23
2018-11-04T06:51:09.439Z,20.63
2018-11-04T06:53:38.581Z,22.83
2018-11-04T06:56:09.052Z,20.97
2018-11-04T06:58:39.449Z,20.03
2018-11-04T07:01:08.593Z,18.40
2018-11-04T07:03:48.595Z,21.87
2018-11-04T07:06:17.946Z,22.70
2018-11-04T07:08:47.195Z,23.57
2018-11-04T07:11:16.567Z,21.00
2018-11-04T07:13:45.722Z,22.00
2018-11-04T07:16:14.827Z,21.40
2018-11-04T07:18:43.751Z,22.73
2018-11-04T07:21:13.915Z,22.90
2018-11-04T07:23:43.016Z,22.43
2018-11-04T07:26:12.381Z,22.37
2018-11-04T07:28:41.794Z,23.03
2018-11-04T07:31:11.384Z,22.80
2018-11-04T07:33:40.926Z,22.60
2018-11-04T07:36:10.108Z,22.30
2018-11-04T07:38:39.071Z,22.07
2018-11-04T07:41:07.960Z,21.90
2018-11-04T07:43:36.866Z,21.10
2018-11-04T07:46:05.791Z,23.27
2018-11-04T07:48:35.067Z,22.90
2018-11-04T07:51:03.971Z,23.00
2018-11-04T07:53:32.879Z,23.90
2018-11-04T07:56:02.005Z,22.97
2018-11-04T07:58:31.695Z,22.50
2018-11-04T08:01:00.891Z,24.33
2018-11-04T08:03:30.039Z,22.60
2018-11-04T08:05:58.939Z,25.57
2018-11-04T08:08:27.863Z,24.43
2018-11-04T08:10:56.762Z,23.83
2018-11-04T08:13:25.661Z,23.50
2018-11-04T08:15:54.526Z,24.60
2018-11-04T08:18:24.857Z,24.57
2018-11-04T08:20:53.987Z,24.50
2018-11-04T08:23:23.444Z,22.17
2018-11-04T08:25:52.666Z,22.00
2018-11-04T08:28:21.578Z,23.97
2018-11-04T08:30:52.279Z,25.20
2018-11-04T08:33:21.310Z,25.70
2018-11-04T08:35:50.274Z,21.13
2018-11-04T08:38:19.241Z,23.10
2018-11-04T08:40:48.227Z,23.30
2018-11-04T08:43:19.263Z,27.33
2018-11-04T08:45:48.479Z,25.07
2018-11-04T08:48:17.482Z,26.70
2018-11-04T08:50:46.897Z,25.30
2018-11-04T08:53:45.188Z,23.60
2018-11-04T08:56:14.988Z,26.40
2018-11-04T08:58:44.765Z,25.70
2018-11-04T09:01:13.867Z,24.80
2018-11-04T09:03:43.032Z,25.90
2018-11-04T09:06:12.371Z,27.17
2018-11-04T09:08:41.642Z,25.90
2018-11-04T09:11:10.614Z,25.17
2018-11-04T09:13:40.119Z,26.83
2018-11-04T09:16:09.289Z,26.73
2018-11-04T09:18:38.185Z,23.53
2018-11-04T09:21:07.475Z,25.90
2018-11-04T09:23:37.436Z,26.10
2018-11-04T09:26:06.741Z,26.83
2018-11-04T09:28:35.671Z,28.97
2018-11-04T09:31:05.539Z,27.87
2018-11-04T09:33:34.470Z,27.20
2018-11-04T09:36:03.750Z,27.17
2018-11-04T09:38:32.568Z,28.53
2018-11-04T09:41:02.063Z,27.90
2018-11-04T09:43:31.540Z,27.80
2018-11-04T09:46:01.662Z,27.93
2018-11-04T09:48:31.120Z,27.60
2018-11-04T09:51:00.108Z,28.33
2018-11-04T09:53:29.267Z,27.80
2018-11-04T09:55:58.971Z,28.47
2018-11-04T09:58:28.088Z,27.43
2018-11-04T10:00:57.335Z,26.93
2018-11-04T10:03:26.612Z,27.10
2018-11-04T10:05:55.638Z,29.83
2018-11-04T10:08:24.543Z,27.30
2018-11-04T10:10:53.430Z,27.10
2018-11-04T10:13:22.459Z,27.93
2018-11-04T10:15:51.485Z,26.70
2018-11-04T10:18:20.384Z,28.10
2018-11-04T10:20:49.611Z,28.57
2018-11-04T10:23:19.693Z,28.70
2018-11-04T10:25:49.134Z,29.10
2018-11-04T10:28:18.815Z,28.77
2018-11-04T10:30:47.854Z,29.30
2018-11-04T10:33:17.642Z,27.47
2018-11-04T10:35:46.700Z,29.00
2018-11-04T10:38:15.674Z,24.90
2018-11-04T10:40:44.638Z,27.37
2018-11-04T10:43:14.553Z,29.33
2018-11-04T10:45:44.290Z,28.70
2018-11-04T10:48:13.491Z,27.03
2018-11-04T10:50:42.731Z,26.03
2018-11-04T10:53:11.894Z,28.27
2018-11-04T10:55:41.167Z,29.43
2018-11-04T10:58:10.279Z,29.67
2018-11-04T11:00:45.023Z,27.70
2018-11-04T11:03:14.588Z,27.03
2018-11-04T11:05:43.840Z,30.50
2018-11-04T11:08:14.978Z,26.10
2018-11-04T11:10:44.873Z,28.37
2018-11-04T11:13:14.416Z,29.83
2018-11-04T11:15:43.421Z,29.27
2018-11-04T11:18:12.710Z,29.80
2018-11-04T11:20:41.658Z,30.17
2018-11-04T11:23:10.682Z,30.47
2018-11-04T11:25:39.894Z,27.77
2018-11-04T11:28:10.586Z,26.83
2018-11-04T11:30:42.208Z,29.60
2018-11-04T11:39:41.888Z,29.50
2018-11-04T11:42:13.657Z,29.70
2018-11-04T11:44:44.830Z,26.57
2018-11-04T11:47:15.108Z,28.83
2018-11-04T11:49:44.770Z,28.77
2018-11-04T11:52:14.904Z,28.30
2018-11-04T11:54:45.171Z,24.00
2018-11-04T11:57:15.531Z,29.67
2018-11-04T11:59:45.102Z,27.87
2018-11-04T12:02:17.057Z,27.90
2018-11-04T12:04:47.587Z,25.53
2018-11-04T12:07:19.201Z,27.33
2018-11-04T12:09:56.582Z,28.30
2018-11-04T12:12:27.083Z,24.47
2018-11-04T12:14:57.929Z,27.13
2018-11-04T12:17:29.471Z,28.77
2018-11-04T12:19:59.117Z,28.90
2018-11-04T12:22:29.609Z,29.03
2018-11-04T12:25:00.362Z,32.63
2018-11-04T12:27:30.060Z,32.13
2018-11-04T12:30:00.674Z,31.00
2018-11-04T12:32:30.624Z,30.40
2018-11-04T12:35:02.125Z,27.63
2018-11-04T12:37:31.810Z,29.10
2018-11-04T12:40:02.862Z,30.57
2018-11-04T12:42:33.627Z,30.70
2018-11-04T12:45:06.234Z,30.00
2018-11-04T12:47:36.075Z,31.53
2018-11-04T12:50:07.793Z,28.80
2018-11-04T12:52:37.572Z,31.27
2018-11-04T12:55:07.981Z,31.13
2018-11-04T12:57:43.011Z,30.07
2018-11-04T13:00:13.939Z,31.87
2018-11-04T13:02:43.534Z,31.43
2018-11-04T13:05:12.915Z,31.97
2018-11-04T13:07:43.402Z,31.13
2018-11-04T13:10:14.133Z,33.53
2018-11-04T13:12:43.235Z,30.17
2018-11-04T13:15:13.488Z,31.57
2018-11-04T13:17:43.051Z,31.67
2018-11-04T13:20:12.272Z,26.57
2018-11-04T13:22:41.268Z,28.70
2018-11-04T13:25:10.989Z,29.07
2018-11-04T13:27:40.025Z,26.20
2018-11-04T13:30:11.247Z,28.50
2018-11-04T13:32:40.311Z,30.07
2018-11-04T13:35:09.242Z,29.70
2018-11-04T13:37:38.793Z,28.00
2018-11-04T13:40:09.534Z,28.33
2018-11-04T13:42:38.483Z,28.07
2018-11-04T13:45:08.321Z,31.80
2018-11-04T13:47:37.612Z,31.60
2018-11-04T13:50:08.765Z,30.13
2018-11-04T13:52:38.051Z,31.80
2018-11-04T13:55:07.221Z,28.80
2018-11-04T13:57:36.295Z,28.80
2018-11-04T14:00:07.034Z,28.80
2018-11-04T14:02:36.198Z,25.80
2018-11-04T14:05:06.394Z,30.27
2018-11-04T14:07:35.430Z,26.70
2018-11-04T14:10:04.648Z,30.70
2018-11-04T14:12:33.542Z,26.67
2018-11-04T14:15:02.456Z,31.23
2018-11-04T14:17:31.647Z,31.90
2018-11-04T14:20:01.081Z,29.90
2018-11-04T14:22:30.035Z,31.90
2018-11-04T14:24:59.071Z,30.47
2018-11-04T14:27:27.979Z,29.77
2018-11-04T14:29:59.219Z,31.63
2018-11-04T14:32:28.200Z,31.17
2018-11-04T14:34:57.303Z,31.23
2018-11-04T14:37:26.583Z,28.37
2018-11-04T14:39:55.500Z,29.67
2018-11-04T14:42:24.391Z,29.80
2018-11-04T14:44:53.270Z,32.17
2018-11-04T14:47:22.207Z,30.23
2018-11-04T14:49:51.347Z,29.90
2018-11-04T14:52:20.303Z,28.37
2018-11-04T14:54:49.467Z,28.60
2018-11-04T14:57:18.654Z,29.03
2018-11-04T14:59:47.609Z,28.87
2018-11-04T15:02:16.867Z,29.37
2018-11-04T15:04:45.822Z,27.80
2018-11-04T15:07:15.031Z,28.00
2018-11-04T15:09:43.949Z,30.73
2018-11-04T15:12:12.834Z,29.13
2018-11-04T15:14:42.253Z,26.70
2018-11-04T15:17:11.691Z,29.87
2018-11-04T15:19:41.147Z,30.03
2018-11-04T15:22:10.047Z,30.40
2018-11-04T15:24:39.135Z,30.40
2018-11-04T15:27:08.040Z,29.90
2018-11-04T15:29:37.222Z,26.90
2018-11-04T15:32:06.555Z,23.90
2018-11-04T15:34:35.765Z,28.20
2018-11-04T15:37:04.530Z,27.50
2018-11-04T15:39:34.023Z,30.10
2018-11-04T15:42:02.907Z,31.60
2018-11-04T15:44:32.080Z,29.30
2018-11-04T15:47:01.271Z,30.20
2018-11-04T15:49:30.879Z,32.03
2018-11-04T15:52:00.147Z,31.03
2018-11-04T15:54:29.026Z,30.53
2018-11-04T15:57:03.734Z,29.70
2018-11-04T15:59:32.918Z,27.70
2018-11-04T16:02:02.224Z,28.50
2018-11-04T16:04:31.181Z,30.93
2018-11-04T16:07:01.099Z,31.33
2018-11-04T16:09:30.009Z,29.60
2018-11-04T16:11:59.186Z,29.03
2018-11-04T16:14:28.065Z,32.63
2018-11-04T16:16:57.226Z,32.37
2018-11-04T16:19:26.663Z,32.47
2018-11-04T16:21:55.659Z,29.00
2018-11-04T16:24:24.583Z,32.37
2018-11-04T16:26:53.476Z,28.57
2018-11-04T16:29:22.424Z,31.00
2018-11-04T16:31:51.455Z,32.53
2018-11-04T16:34:20.327Z,30.33
2018-11-04T16:36:49.510Z,30.77
2018-11-04T16:39:18.722Z,31.00
2018-11-04T16:41:48.255Z,31.10
2018-11-04T16:44:18.173Z,33.27
2018-11-04T16:46:46.885Z,32.97
2018-11-04T16:49:15.815Z,30.70
2018-11-04T16:51:44.869Z,30.80
2018-11-04T16:54:13.771Z,31.27
2018-11-04T16:56:42.656Z,34.23
2018-11-04T16:59:11.530Z,30.80
2018-11-04T17:01:40.962Z,33.73
2018-11-04T17:04:10.981Z,33.33
2018-11-04T17:06:40.139Z,34.23
2018-11-04T17:09:09.387Z,32.20
2018-11-04T17:11:38.286Z,31.47
2018-11-04T17:14:07.517Z,31.03
2018-11-04T17:16:36.579Z,31.27
2018-11-04T17:19:06.130Z,29.80
2018-11-04T17:21:35.374Z,32.30
2018-11-04T17:24:06.350Z,31.00
2018-11-04T17:26:35.304Z,29.70
2018-11-04T17:29:04.834Z,28.77
2018-11-04T17:31:33.811Z,32.37
2018-11-04T17:34:03.148Z,32.03
2018-11-04T17:36:34.265Z,33.43
2018-11-04T17:39:04.820Z,29.60
2018-11-04T17:41:34.295Z,30.30
2018-11-04T17:44:03.491Z,29.20
2018-11-04T17:46:33.103Z,29.20
2018-11-04T17:49:02.304Z,31.33
2018-11-04T17:51:31.903Z,31.33
2018-11-04T17:54:01.110Z,29.93
2018-11-04T17:56:30.011Z,32.70
2018-11-04T17:58:59.394Z,30.93
2018-11-04T18:01:28.817Z,32.33
2018-11-04T18:03:58.307Z,30.60
2018-11-04T18:06:27.633Z,31.60
2018-11-04T18:08:56.536Z,30.87
2018-11-04T18:11:25.490Z,30.87
2018-11-04T18:13:54.758Z,30.23
2018-11-04T18:16:23.901Z,29.60
2018-11-04T18:18:52.799Z,30.93
2018-11-04T18:21:21.794Z,31.13
2018-11-04T18:23:51.217Z,31.13
2018-11-04T18:26:20.227Z,31.63
2018-11-04T18:28:49.078Z,27.70
2018-11-04T18:31:18.008Z,28.90
2018-11-04T18:33:47.458Z,27.40
2018-11-04T18:36:16.395Z,28.17
2018-11-04T18:38:45.422Z,30.67
2018-11-04T18:41:14.434Z,30.20
2018-11-04T18:43:43.501Z,28.37
2018-11-04T18:46:12.774Z,29.80
2018-11-04T18:48:42.024Z,30.13
2018-11-04T18:51:11.318Z,30.70
2018-11-04T18:53:40.404Z,30.23
2018-11-04T18:56:09.411Z,28.67
2018-11-04T18:58:38.912Z,26.97
2018-11-04T19:01:08.355Z,29.70
2018-11-04T19:03:37.829Z,27.60
2018-11-04T19:06:06.739Z,28.57
2018-11-04T19:08:35.652Z,28.33
2018-11-04T19:11:05.576Z,29.93
2018-11-04T19:13:35.209Z,26.70
2018-11-04T19:16:04.231Z,24.80
2018-11-04T19:18:33.181Z,27.30
2018-11-04T19:21:02.407Z,26.87
2018-11-04T19:23:31.547Z,28.97
2018-11-04T19:26:00.597Z,25.50
2018-11-04T19:28:29.827Z,26.33
2018-11-04T19:30:58.818Z,27.23
2018-11-04T19:33:27.814Z,26.93
2018-11-04T19:35:56.744Z,27.23
2018-11-04T19:38:25.860Z,24.60
2018-11-04T19:40:55.341Z,26.43
2018-11-04T19:43:24.355Z,25.90
2018-11-04T19:45:53.325Z,26.37
2018-11-04T19:48:22.418Z,23.47
2018-11-04T19:50:51.319Z,25.20
2018-11-04T19:53:20.620Z,24.50
2018-11-04T19:55:49.903Z,25.67
2018-11-04T19:58:19.100Z,24.00
2018-11-04T20:00:48.573Z,25.17
2018-11-04T20:03:17.569Z,24.97
2018-11-04T20:05:46.815Z,26.00
2018-11-04T20:08:16.305Z,26.60
2018-11-04T20:10:45.266Z,25.80
2018-11-04T20:13:19.904Z,26.13
2018-11-04T20:15:48.894Z,26.70
2018-11-04T20:18:23.180Z,26.10
2018-11-04T20:20:52.675Z,29.27
2018-11-04T20:23:21.944Z,25.60
2018-11-04T20:25:56.272Z,27.00
2018-11-04T20:28:25.839Z,25.70
2018-11-04T20:30:54.747Z,27.10
2018-11-04T20:33:23.971Z,25.40
2018-11-04T20:35:56.014Z,24.90
2018-11-04T20:38:30.779Z,25.80
2018-11-04T20:41:05.279Z,24.47
2018-11-04T20:43:34.317Z,25.80
2018-11-04T20:46:03.245Z,25.20
2018-11-04T20:48:40.031Z,24.13
2018-11-04T20:51:13.457Z,24.90
2018-11-04T20:53:45.735Z,23.80
2018-11-04T20:56:22.222Z,24.60
2018-11-04T20:58:53.051Z,25.23
2018-11-04T21:01:24.368Z,24.80
2018-11-04T21:03:55.860Z,23.77
2018-11-04T21:06:26.927Z,25.10
2018-11-04T21:08:57.880Z,25.13
2018-11-04T21:11:28.573Z,23.30
2018-11-04T21:14:00.491Z,22.90
2018-11-04T21:16:31.444Z,22.40
2018-11-04T21:19:04.007Z,23.57
2018-11-04T21:21:36.367Z,19.73
2018-11-04T21:24:07.312Z,23.30
2018-11-04T21:26:38.355Z,21.33
2018-11-04T21:29:09.899Z,21.50
2018-11-04T21:31:40.864Z,22.07
2018-11-04T21:34:12.214Z,20.30
2018-11-04T21:36:44.132Z,19.27
2018-11-04T21:39:16.748Z,20.63
2018-11-04T21:41:48.126Z,22.60
2018-11-04T21:44:20.522Z,21.80
2018-11-04T21:46:52.309Z,21.23
2018-11-04T21:49:24.510Z,21.50
2018-11-04T21:51:57.909Z,23.20
2018-11-04T21:54:28.499Z,21.40
2018-11-04T21:56:59.870Z,21.33
2018-11-04T21:59:32.678Z,22.30
2018-11-04T22:02:04.307Z,22.10
2018-11-04T22:04:36.543Z,22.00
2018-11-04T22:07:08.308Z,22.57
2018-11-04T22:09:39.233Z,21.67
2018-11-04T22:12:10.473Z,22.80
2018-11-04T22:14:41.383Z,21.40
2018-11-04T22:17:12.972Z,22.60
2018-11-04T22:19:43.989Z,22.00
2018-11-04T22:23:18.383Z,21.80
2018-11-04T22:25:49.480Z,23.90
2018-11-04T22:28:20.388Z,23.80
2018-11-04T22:30:50.275Z,23.60
2018-11-04T22:33:19.187Z,24.07
2018-11-04T22:35:48.672Z,23.43
2018-11-04T22:38:17.586Z,22.10
2018-11-04T22:40:49.765Z,21.97
2018-11-04T22:43:23.369Z,24.43
2018-11-04T22:45:56.048Z,22.80
2018-11-04T22:48:27.238Z,23.37
2018-11-04T22:50:57.812Z,20.53
2018-11-04T22:53:26.815Z,24.13
2018-11-04T22:55:55.747Z,23.77
2018-11-04T22:58:25.459Z,23.33
2018-11-04T23:00:59.509Z,23.23
2018-11-04T23:03:31.663Z,20.47
2018-11-04T23:06:05.914Z,23.53
2018-11-04T23:08:36.277Z,24.10
2018-11-04T23:11:06.605Z,22.47
2018-11-04T23:13:36.776Z,25.30
2018-11-04T23:16:06.507Z,22.33
2018-11-04T23:18:37.448Z,24.93
2018-11-04T23:21:07.451Z,25.33
2018-11-04T23:23:37.172Z,25.90
2018-11-04T23:26:07.548Z,25.47
2018-11-04T23:28:37.389Z,23.83
2018-11-04T23:31:07.361Z,23.33
2018-11-04T23:33:37.141Z,23.90
2018-11-04T23:36:07.134Z,23.07
2018-11-04T23:38:37.189Z,26.23
2018-11-04T23:41:07.322Z,25.50
2018-11-04T23:43:37.248Z,22.50
2018-11-04T23:46:08.152Z,25.30
2018-11-04T23:48:37.836Z,26.70
2018-11-04T23:51:07.575Z,25.40
2018-11-04T23:53:37.892Z,26.30
2018-11-04T23:56:07.907Z,25.47
2018-11-04T23:58:37.633Z,26.07
